sensor_id;sensor_type;location;lat;lon;timestamp;pressure;altitude;pressure_sealevel;temperature;humidity
11212;BME280;5663;50.864;12.096;2022-09-20T00:00:15;99503.16;;;12.34;75.11
11212;BME280;5663;50.864;12.096;2022-09-20T00:02:45;99567.06;;;12.73;75.05
11212;BME280;5663;50.864;12.096;2022-09-20T00:05:19;99574.63;;;12.77;74.92
11212;BME280;5663;50.864;12.096;2022-09-20T00:07:49;99571.91;;;12.79;74.96
11212;BME280;5663;50.864;12.096;2022-09-20T00:10:18;99578.13;;;12.76;74.75
11212;BME280;5663;50.864;12.096;2022-09-20T00:12:48;99574.78;;;12.74;74.51
11212;BME280;5663;50.864;12.096;2022-09-20T00:15:17;99579.16;;;12.74;74.81
11212;BME280;5663;50.864;12.096;2022-09-20T00:17:45;99580.94;;;12.73;74.88
11212;BME280;5663;50.864;12.096;2022-09-20T00:20:13;99574.97;;;12.71;75.07
11212;BME280;5663;50.864;12.096;2022-09-20T00:22:41;99582.88;;;12.70;75.10
11212;BME280;5663;50.864;12.096;2022-09-20T00:25:09;99589.78;;;12.71;75.35
11212;BME280;5663;50.864;12.096;2022-09-20T00:27:39;99580.16;;;12.71;75.12
11212;BME280;5663;50.864;12.096;2022-09-20T00:30:08;99587.16;;;12.71;75.09
11212;BME280;5663;50.864;12.096;2022-09-20T00:36:25;99587.44;;;12.66;74.56
11212;BME280;5663;50.864;12.096;2022-09-20T00:38:54;99583.31;;;12.62;74.83
11212;BME280;5663;50.864;12.096;2022-09-20T00:41:24;99579.94;;;12.60;74.72
11212;BME280;5663;50.864;12.096;2022-09-20T00:43:55;99583.47;;;12.59;74.54
11212;BME280;5663;50.864;12.096;2022-09-20T00:46:26;99555.97;;;12.38;74.65
11212;BME280;5663;50.864;12.096;2022-09-20T00:49:02;99587.28;;;12.53;74.50
11212;BME280;5663;50.864;12.096;2022-09-20T00:51:34;99589.94;;;12.52;74.38
11212;BME280;5663;50.864;12.096;2022-09-20T00:54:06;99584.94;;;12.49;74.25
11212;BME280;5663;50.864;12.096;2022-09-20T00:56:40;99588.44;;;12.48;74.21
11212;BME280;5663;50.864;12.096;2022-09-20T00:59:14;99560.78;;;12.29;74.07
11212;BME280;5663;50.864;12.096;2022-09-20T01:01:46;99590.47;;;12.43;74.33
11212;BME280;5663;50.864;12.096;2022-09-20T01:04:18;99587.09;;;12.41;74.23
11212;BME280;5663;50.864;12.096;2022-09-20T01:06:51;99588.19;;;12.37;73.96
11212;BME280;5663;50.864;12.096;2022-09-20T01:09:20;99582.97;;;12.37;73.91
11212;BME280;5663;50.864;12.096;2022-09-20T01:11:49;99581.72;;;12.28;73.65
11212;BME280;5663;50.864;12.096;2022-09-20T01:14:24;99591.16;;;12.30;73.48
11212;BME280;5663;50.864;12.096;2022-09-20T01:16:54;99595.59;;;12.28;73.87
11212;BME280;5663;50.864;12.096;2022-09-20T01:19:30;99586.09;;;12.27;73.76
11212;BME280;5663;50.864;12.096;2022-09-20T01:22:15;99587.13;;;12.25;74.15
11212;BME280;5663;50.864;12.096;2022-09-20T01:24:53;99581.03;;;12.24;73.95
11212;BME280;5663;50.864;12.096;2022-09-20T01:27:42;99584.56;;;12.23;73.99
11212;BME280;5663;50.864;12.096;2022-09-20T01:30:13;99550.91;;;12.03;74.18
11212;BME280;5663;50.864;12.096;2022-09-20T01:33:15;99589.78;;;12.23;74.07
11212;BME280;5663;50.864;12.096;2022-09-20T01:35:48;99595.00;;;12.23;74.26
11212;BME280;5663;50.864;12.096;2022-09-20T01:38:38;99589.03;;;12.21;74.36
11212;BME280;5663;50.864;12.096;2022-09-20T01:41:11;99571.09;;;12.15;74.57
11212;BME280;5663;50.864;12.096;2022-09-20T01:43:49;99583.72;;;12.23;74.72
11212;BME280;5663;50.864;12.096;2022-09-20T01:46:28;99584.41;;;12.26;74.62
11212;BME280;5663;50.864;12.096;2022-09-20T01:49:08;99578.63;;;12.21;74.30
11212;BME280;5663;50.864;12.096;2022-09-20T01:52:02;99589.63;;;12.26;74.69
11212;BME280;5663;50.864;12.096;2022-09-20T01:58:07;99591.47;;;12.24;74.37
11212;BME280;5663;50.864;12.096;2022-09-20T02:00:50;99584.81;;;12.19;74.59
11212;BME280;5663;50.864;12.096;2022-09-20T02:04:06;99588.44;;;12.16;74.34
11212;BME280;5663;50.864;12.096;2022-09-20T02:06:48;99599.03;;;12.13;74.12
11212;BME280;5663;50.864;12.096;2022-09-20T02:12:43;99585.31;;;11.94;73.54
11212;BME280;5663;50.864;12.096;2022-09-20T02:15:28;99595.72;;;11.94;73.75
11212;BME280;5663;50.864;12.096;2022-09-20T02:18:14;99592.59;;;11.87;73.94
11212;BME280;5663;50.864;12.096;2022-09-20T02:20:51;99572.00;;;11.65;73.81
11212;BME280;5663;50.864;12.096;2022-09-20T02:23:39;99587.31;;;11.71;73.97
11212;BME280;5663;50.864;12.096;2022-09-20T02:26:25;99599.41;;;11.72;73.98
11212;BME280;5663;50.864;12.096;2022-09-20T02:29:01;99600.50;;;11.68;73.88
11212;BME280;5663;50.864;12.096;2022-09-20T02:31:43;99598.22;;;11.62;74.06
11212;BME280;5663;50.864;12.096;2022-09-20T02:34:31;99596.06;;;11.53;74.01
11212;BME280;5663;50.864;12.096;2022-09-20T02:37:19;99597.13;;;11.49;74.03
11212;BME280;5663;50.864;12.096;2022-09-20T02:40:05;99602.34;;;11.49;74.10
11212;BME280;5663;50.864;12.096;2022-09-20T02:42:44;99606.03;;;11.45;73.95
11212;BME280;5663;50.864;12.096;2022-09-20T02:45:19;99608.03;;;11.40;74.27
11212;BME280;5663;50.864;12.096;2022-09-20T02:47:52;99611.72;;;11.35;74.16
11212;BME280;5663;50.864;12.096;2022-09-20T02:50:32;99583.09;;;11.18;73.80
11212;BME280;5663;50.864;12.096;2022-09-20T02:53:17;99607.13;;;11.23;73.94
11212;BME280;5663;50.864;12.096;2022-09-20T02:55:58;99608.34;;;11.16;74.09
11212;BME280;5663;50.864;12.096;2022-09-20T02:58:37;99597.31;;;11.11;74.03
11212;BME280;5663;50.864;12.096;2022-09-20T03:01:15;99602.81;;;11.05;74.03
11212;BME280;5663;50.864;12.096;2022-09-20T03:03:54;99604.94;;;10.97;74.32
11212;BME280;5663;50.864;12.096;2022-09-20T03:06:32;99606.78;;;10.95;74.23
11212;BME280;5663;50.864;12.096;2022-09-20T03:09:12;99619.94;;;10.92;74.36
11212;BME280;5663;50.864;12.096;2022-09-20T03:11:50;99598.88;;;10.79;74.45
11212;BME280;5663;50.864;12.096;2022-09-20T03:14:27;99607.53;;;10.79;74.34
11212;BME280;5663;50.864;12.096;2022-09-20T03:17:04;99611.06;;;10.78;74.38
11212;BME280;5663;50.864;12.096;2022-09-20T03:19:45;99609.38;;;10.77;74.23
11212;BME280;5663;50.864;12.096;2022-09-20T03:22:29;99619.78;;;10.77;74.18
11212;BME280;5663;50.864;12.096;2022-09-20T03:25:36;99625.13;;;10.74;74.10
11212;BME280;5663;50.864;12.096;2022-09-20T03:28:24;99610.72;;;10.67;74.20
11212;BME280;5663;50.864;12.096;2022-09-20T03:31:02;99611.50;;;10.69;74.20
11212;BME280;5663;50.864;12.096;2022-09-20T03:33:42;99610.81;;;10.66;74.30
11212;BME280;5663;50.864;12.096;2022-09-20T03:36:26;99608.56;;;10.58;74.46
11212;BME280;5663;50.864;12.096;2022-09-20T03:39:22;99611.22;;;10.56;74.30
11212;BME280;5663;50.864;12.096;2022-09-20T03:42:05;99609.63;;;10.54;74.39
11212;BME280;5663;50.864;12.096;2022-09-20T03:44:53;99619.25;;;10.52;74.53
11212;BME280;5663;50.864;12.096;2022-09-20T03:47:39;99608.13;;;10.48;74.92
11212;BME280;5663;50.864;12.096;2022-09-20T03:50:44;99611.38;;;10.53;75.14
11212;BME280;5663;50.864;12.096;2022-09-20T03:59:49;99609.53;;;10.55;75.09
11212;BME280;5663;50.864;12.096;2022-09-20T04:02:52;99621.56;;;10.58;75.29
11212;BME280;5663;50.864;12.096;2022-09-20T04:05:27;99625.00;;;10.58;75.58
11212;BME280;5663;50.864;12.096;2022-09-20T04:08:08;99624.00;;;10.61;75.73
11212;BME280;5663;50.864;12.096;2022-09-20T04:10:53;99609.31;;;10.60;75.95
11212;BME280;5663;50.864;12.096;2022-09-20T04:13:35;99586.50;;;10.48;75.96
11212;BME280;5663;50.864;12.096;2022-09-20T04:16:13;99626.81;;;10.75;76.02
11212;BME280;5663;50.864;12.096;2022-09-20T04:18:56;99601.50;;;10.60;76.18
11212;BME280;5663;50.864;12.096;2022-09-20T04:21:33;99617.47;;;10.71;76.21
11212;BME280;5663;50.864;12.096;2022-09-20T04:24:10;99635.94;;;10.84;76.38
11212;BME280;5663;50.864;12.096;2022-09-20T04:26:45;99641.06;;;10.85;76.61
11212;BME280;5663;50.864;12.096;2022-09-20T04:29:26;99644.28;;;10.91;76.62
11212;BME280;5663;50.864;12.096;2022-09-20T04:32:03;99631.38;;;10.89;76.68
11212;BME280;5663;50.864;12.096;2022-09-20T04:34:41;99643.09;;;10.98;76.97
11212;BME280;5663;50.864;12.096;2022-09-20T04:37:31;99638.59;;;11.01;76.88
11212;BME280;5663;50.864;12.096;2022-09-20T04:40:08;99634.81;;;11.07;77.11
11212;BME280;5663;50.864;12.096;2022-09-20T04:43:14;99642.16;;;11.16;76.92
11212;BME280;5663;50.864;12.096;2022-09-20T04:49:09;99642.50;;;11.27;76.87
11212;BME280;5663;50.864;12.096;2022-09-20T04:55:35;99641.28;;;11.34;76.97
11212;BME280;5663;50.864;12.096;2022-09-20T05:16:52;99651.69;;;11.17;76.77
11212;BME280;5663;50.864;12.096;2022-09-20T05:19:31;99664.72;;;11.17;76.72
11212;BME280;5663;50.864;12.096;2022-09-20T05:22:28;99664.00;;;11.14;76.82
11212;BME280;5663;50.864;12.096;2022-09-20T05:25:30;99611.75;;;10.82;76.86
11212;BME280;5663;50.864;12.096;2022-09-20T05:28:15;99657.09;;;11.13;77.17
11212;BME280;5663;50.864;12.096;2022-09-20T05:30:51;99664.84;;;11.14;77.32
11212;BME280;5663;50.864;12.096;2022-09-20T05:33:34;99659.50;;;11.17;77.41
11212;BME280;5663;50.864;12.096;2022-09-20T05:36:12;99663.47;;;11.24;77.44
11212;BME280;5663;50.864;12.096;2022-09-20T05:38:47;99671.91;;;11.29;77.61
11212;BME280;5663;50.864;12.096;2022-09-20T05:41:24;99664.84;;;11.31;77.94
11212;BME280;5663;50.864;12.096;2022-09-20T05:44:07;99675.75;;;11.40;77.83
11212;BME280;5663;50.864;12.096;2022-09-20T05:46:48;99677.28;;;11.44;77.86
11212;BME280;5663;50.864;12.096;2022-09-20T05:49:39;99681.19;;;11.52;78.06
11212;BME280;5663;50.864;12.096;2022-09-20T05:52:24;99688.63;;;11.60;78.00
11212;BME280;5663;50.864;12.096;2022-09-20T05:55:22;99685.72;;;11.66;77.79
11212;BME280;5663;50.864;12.096;2022-09-20T05:58:15;99686.16;;;11.74;77.90
11212;BME280;5663;50.864;12.096;2022-09-20T06:00:54;99686.78;;;11.79;77.58
11212;BME280;5663;50.864;12.096;2022-09-20T06:03:34;99665.63;;;11.68;77.82
11212;BME280;5663;50.864;12.096;2022-09-20T06:06:13;99685.47;;;11.88;78.01
11212;BME280;5663;50.864;12.096;2022-09-20T06:12:05;99694.38;;;12.01;78.18
11212;BME280;5663;50.864;12.096;2022-09-20T06:14:45;99688.00;;;12.07;77.93
11212;BME280;5663;50.864;12.096;2022-09-20T06:17:23;99683.63;;;12.07;78.06
11212;BME280;5663;50.864;12.096;2022-09-20T06:20:14;99693.56;;;12.17;78.19
11212;BME280;5663;50.864;12.096;2022-09-20T06:22:46;99691.81;;;12.17;77.78
11212;BME280;5663;50.864;12.096;2022-09-20T06:25:24;99693.41;;;12.20;77.73
11212;BME280;5663;50.864;12.096;2022-09-20T06:28:00;99683.31;;;12.14;77.84
11212;BME280;5663;50.864;12.096;2022-09-20T06:30:39;99664.53;;;12.07;77.72
11212;BME280;5663;50.864;12.096;2022-09-20T06:33:21;99694.63;;;12.30;77.49
11212;BME280;5663;50.864;12.096;2022-09-20T06:35:54;99689.00;;;12.38;77.83
11212;BME280;5663;50.864;12.096;2022-09-20T06:38:51;99683.53;;;12.42;77.96
11212;BME280;5663;50.864;12.096;2022-09-20T06:41:42;99687.81;;;12.43;77.49
11212;BME280;5663;50.864;12.096;2022-09-20T06:44:13;99694.72;;;12.44;77.59
11212;BME280;5663;50.864;12.096;2022-09-20T06:46:41;99693.88;;;12.44;77.65
11212;BME280;5663;50.864;12.096;2022-09-20T06:49:18;99695.72;;;12.42;77.83
11212;BME280;5663;50.864;12.096;2022-09-20T06:52:00;99697.31;;;12.44;77.57
11212;BME280;5663;50.864;12.096;2022-09-20T06:54:32;99708.63;;;12.45;77.48
11212;BME280;5663;50.864;12.096;2022-09-20T06:57:09;99700.03;;;12.43;77.24
11212;BME280;5663;50.864;12.096;2022-09-20T06:59:44;99702.81;;;12.55;77.51
11212;BME280;5663;50.864;12.096;2022-09-20T07:02:23;99700.97;;;12.57;77.77
11212;BME280;5663;50.864;12.096;2022-09-20T07:04:57;99708.28;;;12.67;77.94
11212;BME280;5663;50.864;12.096;2022-09-20T07:07:26;99694.31;;;12.68;77.78
11212;BME280;5663;50.864;12.096;2022-09-20T07:09:56;99704.59;;;12.87;77.79
11212;BME280;5663;50.864;12.096;2022-09-20T07:12:28;99711.84;;;12.97;77.32
11212;BME280;5663;50.864;12.096;2022-09-20T07:14:58;99714.03;;;13.05;77.15
11212;BME280;5663;50.864;12.096;2022-09-20T07:17:27;99717.22;;;13.10;77.16
11212;BME280;5663;50.864;12.096;2022-09-20T07:20:02;99720.59;;;13.12;76.98
11212;BME280;5663;50.864;12.096;2022-09-20T07:22:35;99729.50;;;13.08;76.69
11212;BME280;5663;50.864;12.096;2022-09-20T07:25:06;99735.78;;;13.05;76.02
11212;BME280;5663;50.864;12.096;2022-09-20T07:27:36;99738.44;;;13.04;76.10
11212;BME280;5663;50.864;12.096;2022-09-20T07:30:10;99736.59;;;13.06;76.05
11212;BME280;5663;50.864;12.096;2022-09-20T07:32:41;99736.59;;;13.06;75.98
11212;BME280;5663;50.864;12.096;2022-09-20T07:35:15;99724.81;;;12.99;76.15
11212;BME280;5663;50.864;12.096;2022-09-20T07:37:46;99721.47;;;12.97;75.82
11212;BME280;5663;50.864;12.096;2022-09-20T07:40:17;99745.59;;;13.16;75.60
11212;BME280;5663;50.864;12.096;2022-09-20T07:42:48;99751.19;;;13.26;75.87
11212;BME280;5663;50.864;12.096;2022-09-20T07:45:21;99748.22;;;13.32;75.58
11212;BME280;5663;50.864;12.096;2022-09-20T07:48:10;99755.63;;;13.40;75.43
11212;BME280;5663;50.864;12.096;2022-09-20T07:50:49;99759.03;;;13.42;75.15
11212;BME280;5663;50.864;12.096;2022-09-20T07:53:20;99759.19;;;13.39;74.95
11212;BME280;5663;50.864;12.096;2022-09-20T08:03:45;99764.56;;;13.36;74.33
11212;BME280;5663;50.864;12.096;2022-09-20T08:06:20;99770.63;;;13.36;73.82
11212;BME280;5663;50.864;12.096;2022-09-20T08:08:49;99758.03;;;13.28;73.48
11212;BME280;5663;50.864;12.096;2022-09-20T08:11:20;99742.16;;;13.16;73.27
11212;BME280;5663;50.864;12.096;2022-09-20T08:13:54;99749.72;;;13.20;73.30
11212;BME280;5663;50.864;12.096;2022-09-20T08:16:28;99776.72;;;13.37;73.27
11212;BME280;5663;50.864;12.096;2022-09-20T08:19:01;99781.59;;;13.43;72.68
11212;BME280;5663;50.864;12.096;2022-09-20T08:21:42;99781.28;;;13.49;72.78
11212;BME280;5663;50.864;12.096;2022-09-20T08:24:20;99786.31;;;13.52;72.23
11212;BME280;5663;50.864;12.096;2022-09-20T08:27:17;99791.19;;;13.58;71.78
11212;BME280;5663;50.864;12.096;2022-09-20T08:29:46;99789.16;;;13.63;70.94
11212;BME280;5663;50.864;12.096;2022-09-20T08:32:20;99787.13;;;13.68;70.92
11212;BME280;5663;50.864;12.096;2022-09-20T08:34:52;99784.00;;;13.77;71.61
11212;BME280;5663;50.864;12.096;2022-09-20T08:37:27;99778.63;;;13.95;72.34
11212;BME280;5663;50.864;12.096;2022-09-20T08:40:16;99780.91;;;14.15;71.12
11212;BME280;5663;50.864;12.096;2022-09-20T08:43:01;99777.94;;;14.21;70.17
11212;BME280;5663;50.864;12.096;2022-09-20T08:45:51;99774.22;;;14.25;68.96
11212;BME280;5663;50.864;12.096;2022-09-20T08:48:43;99790.13;;;14.37;69.41
11212;BME280;5663;50.864;12.096;2022-09-20T08:51:14;99787.28;;;14.40;69.70
11212;BME280;5663;50.864;12.096;2022-09-20T08:53:50;99770.00;;;14.23;69.84
11212;BME280;5663;50.864;12.096;2022-09-20T08:56:25;99775.31;;;14.21;68.77
11212;BME280;5663;50.864;12.096;2022-09-20T08:58:58;99768.28;;;14.08;68.96
11212;BME280;5663;50.864;12.096;2022-09-20T09:01:44;99789.34;;;14.20;69.05
11212;BME280;5663;50.864;12.096;2022-09-20T09:04:22;99782.41;;;14.19;68.85
11212;BME280;5663;50.864;12.096;2022-09-20T09:06:54;99789.34;;;14.20;69.14
11212;BME280;5663;50.864;12.096;2022-09-20T09:09:41;99783.25;;;14.20;68.39
11212;BME280;5663;50.864;12.096;2022-09-20T09:12:20;99798.81;;;14.37;68.59
11212;BME280;5663;50.864;12.096;2022-09-20T09:14:50;99794.78;;;14.46;68.54
11212;BME280;5663;50.864;12.096;2022-09-20T09:17:23;99783.44;;;14.61;68.55
11212;BME280;5663;50.864;12.096;2022-09-20T09:19:53;99794.97;;;15.00;68.74
11212;BME280;5663;50.864;12.096;2022-09-20T09:22:27;99794.78;;;15.17;68.00
11212;BME280;5663;50.864;12.096;2022-09-20T09:25:20;99796.16;;;15.23;66.75
11212;BME280;5663;50.864;12.096;2022-09-20T09:27:54;99798.59;;;15.26;66.65
11212;BME280;5663;50.864;12.096;2022-09-20T09:30:26;99800.38;;;15.25;66.58
11212;BME280;5663;50.864;12.096;2022-09-20T09:33:14;99796.75;;;15.14;66.36
11212;BME280;5663;50.864;12.096;2022-09-20T09:35:55;99809.56;;;15.18;66.78
11212;BME280;5663;50.864;12.096;2022-09-20T09:38:29;99812.72;;;15.23;65.72
11212;BME280;5663;50.864;12.096;2022-09-20T09:41:18;99809.19;;;15.24;66.26
11212;BME280;5663;50.864;12.096;2022-09-20T09:44:02;99812.16;;;15.33;66.31
11212;BME280;5663;50.864;12.096;2022-09-20T09:46:37;99804.84;;;15.38;66.65
11212;BME280;5663;50.864;12.096;2022-09-20T09:49:11;99799.00;;;15.47;66.31
11212;BME280;5663;50.864;12.096;2022-09-20T09:51:59;99789.41;;;15.60;66.46
11212;BME280;5663;50.864;12.096;2022-09-20T09:54:35;99798.00;;;15.76;65.82
11212;BME280;5663;50.864;12.096;2022-09-20T09:57:34;99810.69;;;15.83;64.45
11212;BME280;5663;50.864;12.096;2022-09-20T10:00:09;99802.09;;;15.81;63.70
11212;BME280;5663;50.864;12.096;2022-09-20T10:03:11;99801.88;;;15.84;63.80
11212;BME280;5663;50.864;12.096;2022-09-20T10:05:56;99801.03;;;15.83;63.82
11212;BME280;5663;50.864;12.096;2022-09-20T10:08:38;99796.63;;;15.84;63.67
11212;BME280;5663;50.864;12.096;2022-09-20T10:11:24;99781.69;;;15.71;62.74
11212;BME280;5663;50.864;12.096;2022-09-20T10:14:32;99804.03;;;16.04;63.19
11212;BME280;5663;50.864;12.096;2022-09-20T10:17:24;99808.47;;;16.16;63.32
11212;BME280;5663;50.864;12.096;2022-09-20T10:20:07;99810.47;;;16.25;62.33
11212;BME280;5663;50.864;12.096;2022-09-20T10:22:45;99803.63;;;16.23;61.78
11212;BME280;5663;50.864;12.096;2022-09-20T10:25:30;99805.44;;;16.35;61.79
11212;BME280;5663;50.864;12.096;2022-09-20T10:28:15;99802.84;;;16.48;61.13
11212;BME280;5663;50.864;12.096;2022-09-20T10:30:58;99804.69;;;16.71;61.79
11212;BME280;5663;50.864;12.096;2022-09-20T10:33:40;99792.06;;;17.02;61.78
11212;BME280;5663;50.864;12.096;2022-09-20T10:36:18;99805.47;;;17.23;61.65
11212;BME280;5663;50.864;12.096;2022-09-20T10:38:55;99804.84;;;17.19;60.75
11212;BME280;5663;50.864;12.096;2022-09-20T10:41:45;99797.13;;;17.05;60.45
11212;BME280;5663;50.864;12.096;2022-09-20T10:44:48;99803.13;;;16.94;60.72
11212;BME280;5663;50.864;12.096;2022-09-20T10:47:29;99794.09;;;16.86;60.72
11212;BME280;5663;50.864;12.096;2022-09-20T10:50:16;99795.91;;;16.85;61.20
11212;BME280;5663;50.864;12.096;2022-09-20T10:53:28;99801.47;;;16.81;60.27
11212;BME280;5663;50.864;12.096;2022-09-20T10:56:13;99799.44;;;16.71;60.56
11212;BME280;5663;50.864;12.096;2022-09-20T10:59:10;99807.44;;;16.70;59.91
11212;BME280;5663;50.864;12.096;2022-09-20T11:02:03;99797.38;;;16.77;59.03
11212;BME280;5663;50.864;12.096;2022-09-20T11:08:00;99801.94;;;17.11;59.45
11212;BME280;5663;50.864;12.096;2022-09-20T11:10:36;99808.88;;;17.12;58.97
11212;BME280;5663;50.864;12.096;2022-09-20T11:13:21;99806.78;;;17.05;58.99
11212;BME280;5663;50.864;12.096;2022-09-20T11:15:58;99812.00;;;17.17;59.03
11212;BME280;5663;50.864;12.096;2022-09-20T11:18:31;99803.53;;;17.38;59.27
11212;BME280;5663;50.864;12.096;2022-09-20T11:21:09;99800.06;;;17.61;58.11
11212;BME280;5663;50.864;12.096;2022-09-20T11:23:48;99808.34;;;17.81;57.88
11212;BME280;5663;50.864;12.096;2022-09-20T11:26:29;99799.06;;;17.99;56.45
11212;BME280;5663;50.864;12.096;2022-09-20T11:29:07;99796.94;;;18.04;55.60
11212;BME280;5663;50.864;12.096;2022-09-20T11:31:41;99802.88;;;17.95;55.50
11212;BME280;5663;50.864;12.096;2022-09-20T11:34:15;99797.72;;;17.93;56.13
11212;BME280;5663;50.864;12.096;2022-09-20T11:36:58;99769.97;;;17.89;56.81
11212;BME280;5663;50.864;12.096;2022-09-20T11:39:36;99793.38;;;18.16;56.16
11212;BME280;5663;50.864;12.096;2022-09-20T11:42:10;99800.78;;;18.22;55.05
11212;BME280;5663;50.864;12.096;2022-09-20T11:44:42;99789.31;;;18.35;55.01
11212;BME280;5663;50.864;12.096;2022-09-20T11:47:16;99793.66;;;18.47;55.20
11212;BME280;5663;50.864;12.096;2022-09-20T11:50:06;99793.66;;;18.47;54.61
11212;BME280;5663;50.864;12.096;2022-09-20T11:52:57;99794.13;;;18.41;54.95
11212;BME280;5663;50.864;12.096;2022-09-20T11:55:39;99787.91;;;18.42;54.69
11212;BME280;5663;50.864;12.096;2022-09-20T11:58:11;99792.47;;;18.40;53.75
11212;BME280;5663;50.864;12.096;2022-09-20T12:00:45;99794.13;;;18.30;53.63
11212;BME280;5663;50.864;12.096;2022-09-20T12:03:26;99797.69;;;18.17;53.23
11212;BME280;5663;50.864;12.096;2022-09-20T12:06:02;99784.03;;;18.12;53.88
11212;BME280;5663;50.864;12.096;2022-09-20T12:08:39;99780.88;;;18.07;52.32
11212;BME280;5663;50.864;12.096;2022-09-20T12:11:11;99783.53;;;18.07;53.68
11212;BME280;5663;50.864;12.096;2022-09-20T12:13:55;99762.59;;;18.06;54.08
11212;BME280;5663;50.864;12.096;2022-09-20T12:16:39;99779.72;;;18.22;54.47
11212;BME280;5663;50.864;12.096;2022-09-20T12:19:10;99782.88;;;18.28;54.25
11212;BME280;5663;50.864;12.096;2022-09-20T12:25:34;99773.78;;;18.32;53.18
11212;BME280;5663;50.864;12.096;2022-09-20T12:28:13;99778.91;;;18.33;53.76
11212;BME280;5663;50.864;12.096;2022-09-20T12:30:45;99776.19;;;18.46;54.47
11212;BME280;5663;50.864;12.096;2022-09-20T12:33:18;99772.34;;;18.50;53.77
11212;BME280;5663;50.864;12.096;2022-09-20T12:35:52;99784.09;;;18.57;52.68
11212;BME280;5663;50.864;12.096;2022-09-20T12:38:32;99747.44;;;18.32;52.21
11212;BME280;5663;50.864;12.096;2022-09-20T12:41:20;99744.22;;;18.51;51.96
11212;BME280;5663;50.864;12.096;2022-09-20T12:44:01;99771.66;;;18.82;52.22
11212;BME280;5663;50.864;12.096;2022-09-20T12:46:39;99770.69;;;18.94;51.15
11212;BME280;5663;50.864;12.096;2022-09-20T12:49:33;99766.16;;;19.07;51.35
11212;BME280;5663;50.864;12.096;2022-09-20T12:52:32;99746.97;;;19.05;51.07
11212;BME280;5663;50.864;12.096;2022-09-20T12:55:48;99773.59;;;19.34;50.56
11212;BME280;5663;50.864;12.096;2022-09-20T12:58:37;99759.81;;;19.42;51.19
11212;BME280;5663;50.864;12.096;2022-09-20T13:01:31;99765.88;;;19.54;49.86
11212;BME280;5663;50.864;12.096;2022-09-20T13:04:38;99770.56;;;19.50;50.25
11212;BME280;5663;50.864;12.096;2022-09-20T13:07:39;99775.56;;;19.32;49.29
11212;BME280;5663;50.864;12.096;2022-09-20T13:10:32;99777.84;;;19.14;50.14
11212;BME280;5663;50.864;12.096;2022-09-20T13:13:12;99770.22;;;19.00;49.72
11212;BME280;5663;50.864;12.096;2022-09-20T13:15:49;99726.41;;;18.77;50.53
11212;BME280;5663;50.864;12.096;2022-09-20T13:18:35;99764.22;;;19.09;50.83
11212;BME280;5663;50.864;12.096;2022-09-20T13:21:06;99768.50;;;19.22;49.20
11212;BME280;5663;50.864;12.096;2022-09-20T13:23:45;99772.34;;;19.17;49.39
11212;BME280;5663;50.864;12.096;2022-09-20T13:26:25;99772.69;;;19.24;49.58
11212;BME280;5663;50.864;12.096;2022-09-20T13:28:57;99780.47;;;19.26;49.66
11212;BME280;5663;50.864;12.096;2022-09-20T13:31:32;99752.84;;;18.98;49.24
11212;BME280;5663;50.864;12.096;2022-09-20T13:34:17;99786.03;;;19.11;49.65
11212;BME280;5663;50.864;12.096;2022-09-20T13:36:52;99775.25;;;19.03;48.32
11212;BME280;5663;50.864;12.096;2022-09-20T13:39:32;99786.28;;;18.97;48.79
11212;BME280;5663;50.864;12.096;2022-09-20T13:42:07;99787.13;;;18.98;47.82
11212;BME280;5663;50.864;12.096;2022-09-20T13:44:38;99782.94;;;18.95;48.37
11212;BME280;5663;50.864;12.096;2022-09-20T13:47:24;99791.09;;;18.92;47.10
11212;BME280;5663;50.864;12.096;2022-09-20T13:49:59;99784.13;;;18.80;46.47
11212;BME280;5663;50.864;12.096;2022-09-20T13:52:30;99788.78;;;18.65;47.15
11212;BME280;5663;50.864;12.096;2022-09-20T13:55:19;99795.38;;;18.70;46.26
11212;BME280;5663;50.864;12.096;2022-09-20T13:57:48;99789.75;;;18.64;47.12
11212;BME280;5663;50.864;12.096;2022-09-20T14:00:17;99781.81;;;18.53;47.97
11212;BME280;5663;50.864;12.096;2022-09-20T14:02:49;99796.56;;;18.55;47.84
11212;BME280;5663;50.864;12.096;2022-09-20T14:05:26;99804.78;;;18.51;48.89
11212;BME280;5663;50.864;12.096;2022-09-20T14:07:57;99809.94;;;18.41;49.37
11212;BME280;5663;50.864;12.096;2022-09-20T14:10:33;99798.41;;;18.31;49.58
11212;BME280;5663;50.864;12.096;2022-09-20T14:13:05;99804.38;;;18.21;50.23
11212;BME280;5663;50.864;12.096;2022-09-20T14:15:36;99810.81;;;18.06;50.88
11212;BME280;5663;50.864;12.096;2022-09-20T14:18:11;99810.88;;;17.93;51.16
11212;BME280;5663;50.864;12.096;2022-09-20T14:20:50;99818.13;;;17.79;51.11
11212;BME280;5663;50.864;12.096;2022-09-20T14:23:20;99817.53;;;17.62;51.55
11212;BME280;5663;50.864;12.096;2022-09-20T14:26:20;99815.09;;;17.48;51.89
11212;BME280;5663;50.864;12.096;2022-09-20T14:28:50;99803.38;;;17.28;52.23
11212;BME280;5663;50.864;12.096;2022-09-20T14:31:24;99819.16;;;17.28;52.46
11212;BME280;5663;50.864;12.096;2022-09-20T14:34:11;99823.56;;;17.28;52.96
11212;BME280;5663;50.864;12.096;2022-09-20T14:36:41;99832.16;;;17.30;52.30
11212;BME280;5663;50.864;12.096;2022-09-20T14:39:16;99838.69;;;17.37;52.01
11212;BME280;5663;50.864;12.096;2022-09-20T14:41:48;99827.97;;;17.27;51.34
11212;BME280;5663;50.864;12.096;2022-09-20T14:44:24;99834.50;;;17.21;51.12
11212;BME280;5663;50.864;12.096;2022-09-20T14:46:56;99835.56;;;17.19;51.55
11212;BME280;5663;50.864;12.096;2022-09-20T14:49:33;99804.72;;;16.97;51.81
11212;BME280;5663;50.864;12.096;2022-09-20T14:52:37;99838.72;;;17.11;52.14
11212;BME280;5663;50.864;12.096;2022-09-20T14:55:30;99837.03;;;17.10;52.66
11212;BME280;5663;50.864;12.096;2022-09-20T14:58:06;99835.38;;;17.09;53.46
11212;BME280;5663;50.864;12.096;2022-09-20T15:00:46;99839.97;;;17.18;53.07
11212;BME280;5663;50.864;12.096;2022-09-20T15:03:24;99834.28;;;17.24;51.94
11212;BME280;5663;50.864;12.096;2022-09-20T15:05:57;99812.44;;;17.11;52.75